Manila Express — VRCX7 — position and weather

sailwx.info

Track history (hours):
 
Tides and Currents Weather Stations Pressure Air Temp Water Temp Dewpoint Dewpoint Depression Visibility Wind Speed Wind Dir Waves Ship Positions

Manila Express

Last reported at 2016-Feb-04 12:00 UTC. Time now 2016-Feb-06 20:45 UTC.
Position N 12°06' E 044°18'.

Length 260 m; draft 10.8 m.

Type: Ship (hazmat cat A). MMSI: 477830800.

Wind from 120 at 11 knots

Waves 1.0 meters (3 feet), 12 second period

Barometer 1024.3 mb
Air temperature 27.0 ° C
Visibility: greater than 5.4 NM
Dewpoint 17.5 ° C
Water temperature 27.0 ° C

Date/timePositionNaut miles runAvg speedWind from/ knotsBaromVisibWave heightAir tempDewpointWater temp
2016-Feb-04 12:00N 12°06' E 044°18'   120 / 111024.3 5.4 1.027.017.527.0
2016-Jan-28 02:33N 37°50' E 015°47'3013.0
2016-Jan-28 00:13N 38°20' E 015°39'1115.8
2016-Jan-27 23:31N 38°28' E 015°29'1716.1
2016-Jan-27 22:29N 38°40' E 015°14'10216.5
2016-Jan-27 16:20N 39°48' E 013°36'26716.9
2016-Jan-27 00:34N 43°06' E 009°37'1817.9
2016-Jan-26 23:33N 43°23' E 009°29'1717.5
2016-Jan-26 22:34N 43°39' E 009°20'1717.2
2016-Jan-26 21:34N 43°55' E 009°12'1717.2
2016-Jan-26 20:33N 44°11' E 009°03'1413.8
2016-Jan-26 19:33N 44°24' E 008°55'1 1.1
2016-Jan-26 18:32N 44°24' E 008°54'0 0.0
2016-Jan-26 17:32N 44°24' E 008°54'0 0.0
2016-Jan-26 16:32N 44°24' E 008°54'0 0.0
2016-Jan-26 15:32N 44°24' E 008°54'0 0.0
2016-Jan-26 14:32N 44°24' E 008°54'0 0.0
2016-Jan-26 13:32N 44°24' E 008°54'0 0.0
2016-Jan-26 12:29N 44°24' E 008°54'0 0.0
2016-Jan-26 11:32N 44°24' E 008°54'0 0.0
2016-Jan-26 10:29N 44°24' E 008°54'0 0.0
2016-Jan-26 09:32N 44°24' E 008°54'0 0.0
2016-Jan-26 08:32N 44°24' E 008°54'0 0.0
2016-Jan-26 07:32N 44°24' E 008°54'4 4.0
2016-Jan-26 06:33N 44°22' E 008°58'2 2.1
2016-Jan-26 05:33N 44°20' E 008°60'1 0.8
2016-Jan-26 04:33N 44°20' E 009°00'6 6.1
2016-Jan-26 03:33N 44°16' E 008°54'1716.9
2016-Jan-26 02:33N 44°05' E 008°35'3918.4
2016-Jan-26 00:26N 43°40' E 007°54'1718.9
2016-Jan-25 23:34N 43°29' E 007°37'1918.5
2016-Jan-25 22:33N 43°16' E 007°18'2318.2
2016-Jan-25 21:17N 43°01' E 006°54'1818.7
2016-Jan-25 20:21N 42°50' E 006°36'5017.5
2016-Jan-25 17:31N 42°48' E 005°28'1818.5
2016-Jan-25 16:33N 43°02' E 005°12'1717.5
2016-Jan-25 15:34N 43°16' E 004°60'1010.2
2016-Jan-25 14:32N 43°25' E 004°51'0 0.0
2016-Jan-25 13:32N 43°25' E 004°51'0 0.0
2016-Jan-25 12:29N 43°25' E 004°51'  
Track history (hours):
 
Tides and Currents Weather Stations Pressure Air Temp Water Temp Dewpoint Dewpoint Depression Visibility Wind Speed Wind Dir Waves Ship Positions

Manila Express

Last reported at 2016-Feb-04 12:00 UTC. Time now 2016-Feb-06 20:45 UTC.
Position N 12°06' E 044°18'.

Length 260 m; draft 10.8 m.

Type: Ship (hazmat cat A). MMSI: 477830800.

Wind from 120 at 11 knots

Waves 1.0 meters (3 feet), 12 second period

Barometer 1024.3 mb
Air temperature 27.0 ° C
Visibility: greater than 5.4 NM
Dewpoint 17.5 ° C
Water temperature 27.0 ° C

Date/timePositionNaut miles runAvg speedWind from/ knotsBaromVisibWave heightAir tempDewpointWater temp
2016-Feb-04 12:00N 12°06' E 044°18'   120 / 111024.3 5.4 1.027.017.527.0
2016-Jan-28 02:33N 37°50' E 015°47'3013.0
2016-Jan-28 00:13N 38°20' E 015°39'1115.8
2016-Jan-27 23:31N 38°28' E 015°29'1716.1
2016-Jan-27 22:29N 38°40' E 015°14'10216.5
2016-Jan-27 16:20N 39°48' E 013°36'26716.9
2016-Jan-27 00:34N 43°06' E 009°37'1817.9
2016-Jan-26 23:33N 43°23' E 009°29'1717.5
2016-Jan-26 22:34N 43°39' E 009°20'1717.2
2016-Jan-26 21:34N 43°55' E 009°12'1717.2
2016-Jan-26 20:33N 44°11' E 009°03'1413.8
2016-Jan-26 19:33N 44°24' E 008°55'1 1.1
2016-Jan-26 18:32N 44°24' E 008°54'0 0.0
2016-Jan-26 17:32N 44°24' E 008°54'0 0.0
2016-Jan-26 16:32N 44°24' E 008°54'0 0.0
2016-Jan-26 15:32N 44°24' E 008°54'0 0.0
2016-Jan-26 14:32N 44°24' E 008°54'0 0.0
2016-Jan-26 13:32N 44°24' E 008°54'0 0.0
2016-Jan-26 12:29N 44°24' E 008°54'0 0.0
2016-Jan-26 11:32N 44°24' E 008°54'0 0.0
2016-Jan-26 10:29N 44°24' E 008°54'0 0.0
2016-Jan-26 09:32N 44°24' E 008°54'0 0.0
2016-Jan-26 08:32N 44°24' E 008°54'0 0.0
2016-Jan-26 07:32N 44°24' E 008°54'4 4.0
2016-Jan-26 06:33N 44°22' E 008°58'2 2.1
2016-Jan-26 05:33N 44°20' E 008°60'1 0.8
2016-Jan-26 04:33N 44°20' E 009°00'6 6.1
2016-Jan-26 03:33N 44°16' E 008°54'1716.9
2016-Jan-26 02:33N 44°05' E 008°35'3918.4
2016-Jan-26 00:26N 43°40' E 007°54'1718.9
2016-Jan-25 23:34N 43°29' E 007°37'1918.5
2016-Jan-25 22:33N 43°16' E 007°18'2318.2
2016-Jan-25 21:17N 43°01' E 006°54'1818.7
2016-Jan-25 20:21N 42°50' E 006°36'5017.5
2016-Jan-25 17:31N 42°48' E 005°28'1818.5
2016-Jan-25 16:33N 43°02' E 005°12'1717.5
2016-Jan-25 15:34N 43°16' E 004°60'1010.2
2016-Jan-25 14:32N 43°25' E 004°51'0 0.0
2016-Jan-25 13:32N 43°25' E 004°51'0 0.0
2016-Jan-25 12:29N 43°25' E 004°51'  

Dump ship's entire track history